San Angelo, Texas
Current Conditions -  °F | °C
As of 6:51 PM on Wednesday 22 Oct 2014 (Local Time) from KSJT Reporting Station
Overcast Overcast  
Wind Chill: 70°   Ceiling: 7000
Heat Index: 70°   Visibility: 10mi
Dew Point: 54°   Wind: 7mph
Humidity: 57%   Direction: 220°SW
Pressure: 30.1"   Gusts: NA
Location:  31.46°N, 100.44°W
Report Text: KSJT 222351Z 22006KT 10SM BKN070 OVC090 21/12 A3010 RMK AO2 SLP179 60000 T02110122 10239 20200 53007
Loading
Personal Weather Stations






























Interactive Weather Map
Tropical Storm Tracking
New forecast layout! Learn more

10-Day Weather Forecast

Advertisements
Track Severe Weather on mobile